createdAt,value
2022-08-01T00:00:09.753Z,22.71
2022-08-01T00:02:41.297Z,22.64
2022-08-01T00:05:09.626Z,22.67
2022-08-01T00:07:36.753Z,22.65
2022-08-01T00:10:12.340Z,22.56
2022-08-01T00:12:39.566Z,22.43
2022-08-01T00:15:08.844Z,22.52
2022-08-01T00:17:35.966Z,22.49
2022-08-01T00:20:04.986Z,22.56
2022-08-01T00:22:32.934Z,22.36
2022-08-01T00:24:59.944Z,22.36
2022-08-01T00:27:26.867Z,22.49
2022-08-01T00:30:11.200Z,22.46
2022-08-01T00:32:39.632Z,22.53
2022-08-01T00:35:06.762Z,22.57
2022-08-01T00:37:33.479Z,22.52
2022-08-01T00:40:00.294Z,22.36
2022-08-01T00:42:27.257Z,22.29
2022-08-01T00:44:53.965Z,22.27
2022-08-01T00:47:20.759Z,22.18
2022-08-01T00:49:47.598Z,22.17
2022-08-01T00:52:14.496Z,22.22
2022-08-01T00:54:41.515Z,22.27
2022-08-01T00:57:09.864Z,22.29
2022-08-01T00:59:40.004Z,22.35
2022-08-01T01:02:14.475Z,22.33
2022-08-01T01:04:42.030Z,22.40
2022-08-01T01:07:14.779Z,22.35
2022-08-01T01:09:53.462Z,22.35
2022-08-01T01:12:29.717Z,22.26
2022-08-01T01:15:25.741Z,22.42
2022-08-01T01:18:40.042Z,22.43
2022-08-01T01:21:18.859Z,22.42
2022-08-01T01:24:10.383Z,22.37
2022-08-01T01:27:10.815Z,22.27
2022-08-01T01:29:59.660Z,22.19
2022-08-01T01:32:34.421Z,22.10
2022-08-01T01:35:06.608Z,22.00
2022-08-01T01:37:35.276Z,22.06
2022-08-01T01:40:04.842Z,22.08
2022-08-01T01:42:33.287Z,22.02
2022-08-01T01:45:04.248Z,22.07
2022-08-01T01:47:33.750Z,22.13
2022-08-01T01:50:02.539Z,22.13
2022-08-01T01:52:32.451Z,22.23
2022-08-01T01:55:00.932Z,22.21
2022-08-01T01:57:30.369Z,22.11
2022-08-01T01:59:58.171Z,22.10
2022-08-01T02:02:25.824Z,21.89
2022-08-01T02:04:54.364Z,21.78
2022-08-01T02:07:25.149Z,21.72
2022-08-01T02:09:53.875Z,21.77
2022-08-01T02:12:22.786Z,21.83
2022-08-01T02:14:54.519Z,21.76
2022-08-01T02:17:25.033Z,21.83
2022-08-01T02:19:52.107Z,21.81
2022-08-01T02:22:27.354Z,21.74
2022-08-01T02:25:06.092Z,21.57
2022-08-01T02:27:45.163Z,21.59
2022-08-01T02:30:15.235Z,21.52
2022-08-01T02:32:51.212Z,21.59
2022-08-01T02:35:28.089Z,21.56
2022-08-01T02:37:58.295Z,21.61
2022-08-01T02:40:28.637Z,21.49
2022-08-01T02:42:58.091Z,21.48
2022-08-01T02:45:27.743Z,21.52
2022-08-01T02:48:10.800Z,21.43
2022-08-01T02:50:38.743Z,21.51
2022-08-01T02:53:07.809Z,21.56
2022-08-01T02:55:36.452Z,21.48
2022-08-01T02:58:04.290Z,21.36
2022-08-01T03:00:32.456Z,21.39
2022-08-01T03:03:02.853Z,21.28
2022-08-01T03:05:31.632Z,21.29
2022-08-01T03:08:02.826Z,21.25
2022-08-01T03:10:31.905Z,21.25
2022-08-01T03:13:01.439Z,21.21
2022-08-01T03:15:32.106Z,21.27
2022-08-01T03:18:01.995Z,21.25
2022-08-01T03:20:30.720Z,21.17
2022-08-01T03:23:00.927Z,21.40
2022-08-01T03:25:30.269Z,21.36
2022-08-01T03:28:00.583Z,21.39
2022-08-01T03:30:28.567Z,21.42
2022-08-01T03:32:56.289Z,21.52
2022-08-01T03:35:26.748Z,21.54
2022-08-01T03:40:53.098Z,21.71
2022-08-01T03:43:45.561Z,21.56
2022-08-01T03:46:21.884Z,21.66
2022-08-01T03:48:56.406Z,21.53
2022-08-01T03:51:24.410Z,21.52
2022-08-01T03:53:52.608Z,21.57
2022-08-01T03:56:21.118Z,21.62
2022-08-01T03:58:50.113Z,21.76
2022-08-01T04:01:18.738Z,21.92
2022-08-01T04:03:46.455Z,22.00
2022-08-01T04:06:15.171Z,22.26
2022-08-01T04:08:42.610Z,22.39
2022-08-01T04:11:10.477Z,22.38
2022-08-01T04:13:38.552Z,22.45
2022-08-01T04:16:05.882Z,22.73
2022-08-01T04:18:33.344Z,22.95
2022-08-01T04:21:00.093Z,22.96
2022-08-01T04:23:28.889Z,22.79
2022-08-01T04:25:57.468Z,23.08
2022-08-01T04:28:26.637Z,23.10
2022-08-01T04:31:01.603Z,23.00
2022-08-01T04:33:31.158Z,23.05
2022-08-01T04:36:02.019Z,23.05
2022-08-01T04:38:33.215Z,23.24
2022-08-01T04:41:09.167Z,23.40
2022-08-01T04:43:38.309Z,23.58
2022-08-01T04:46:07.106Z,23.73
2022-08-01T04:48:35.625Z,23.86
2022-08-01T04:51:02.357Z,23.92
2022-08-01T04:53:29.159Z,23.93
2022-08-01T04:55:56.770Z,23.94
2022-08-01T04:58:23.701Z,23.70
2022-08-01T05:00:50.726Z,24.06
2022-08-01T05:03:17.543Z,24.01
2022-08-01T05:05:45.890Z,24.18
2022-08-01T05:08:12.672Z,24.24
2022-08-01T05:10:39.479Z,24.25
2022-08-01T05:13:07.686Z,24.27
2022-08-01T05:15:37.838Z,24.40
2022-08-01T05:18:04.961Z,24.59
2022-08-01T05:20:31.971Z,24.85
2022-08-01T05:22:58.821Z,24.85
2022-08-01T05:25:57.349Z,24.80
2022-08-01T05:28:12.746Z,24.87
2022-08-01T05:30:46.166Z,24.83
2022-08-01T05:33:13.001Z,24.72
2022-08-01T05:35:48.222Z,24.99
2022-08-01T05:38:16.086Z,25.19
2022-08-01T05:40:43.070Z,25.23
2022-08-01T05:43:09.860Z,25.26
2022-08-01T05:45:38.764Z,25.46
2022-08-01T05:48:05.760Z,25.51
2022-08-01T05:50:34.121Z,25.45
2022-08-01T05:53:00.896Z,25.41
2022-08-01T05:55:27.715Z,25.57
2022-08-01T05:57:54.439Z,25.60
2022-08-01T06:00:21.292Z,25.68
2022-08-01T06:02:48.091Z,25.98
2022-08-01T06:05:14.969Z,26.00
2022-08-01T06:07:41.760Z,26.18
2022-08-01T06:10:09.653Z,26.22
2022-08-01T06:12:37.448Z,26.54
2022-08-01T06:15:05.867Z,26.53
2022-08-01T06:17:32.670Z,26.84
2022-08-01T06:19:59.626Z,26.83
2022-08-01T06:22:27.165Z,26.84
2022-08-01T06:24:54.885Z,27.13
2022-08-01T06:27:22.779Z,27.13
2022-08-01T06:29:53.551Z,27.12
2022-08-01T06:32:27.421Z,27.28
2022-08-01T06:34:56.084Z,27.72
2022-08-01T06:37:23.124Z,28.09
2022-08-01T06:39:50.912Z,27.68
2022-08-01T06:42:18.622Z,27.87
2022-08-01T06:44:46.293Z,27.93
2022-08-01T06:47:13.233Z,28.16
2022-08-01T06:49:40.264Z,28.39
2022-08-01T06:52:07.563Z,28.40
2022-08-01T06:54:34.657Z,28.24
2022-08-01T06:57:01.926Z,28.31
2022-08-01T06:59:28.782Z,28.10
2022-08-01T07:01:55.606Z,28.14
2022-08-01T07:04:22.966Z,28.27
2022-08-01T07:06:49.871Z,28.45
2022-08-01T07:09:16.621Z,28.50
2022-08-01T07:11:43.433Z,28.80
2022-08-01T07:14:10.195Z,28.63
2022-08-01T07:16:37.003Z,28.66
2022-08-01T07:19:04.794Z,29.22
2022-08-01T07:21:40.135Z,29.05
2022-08-01T07:24:16.855Z,28.87
2022-08-01T07:26:53.281Z,29.15
2022-08-01T07:29:26.282Z,28.96
2022-08-01T07:31:54.660Z,28.84
2022-08-01T07:34:22.846Z,29.54
2022-08-01T07:36:51.570Z,29.37
2022-08-01T07:39:18.494Z,29.31
2022-08-01T07:42:05.910Z,29.39
2022-08-01T07:44:32.428Z,29.60
2022-08-01T07:46:59.148Z,29.43
2022-08-01T07:49:26.266Z,29.72
2022-08-01T07:52:03.657Z,28.84
2022-08-01T07:54:39.990Z,29.35
2022-08-01T07:57:06.940Z,29.03
2022-08-01T07:59:34.036Z,29.21
2022-08-01T08:02:01.249Z,30.03
2022-08-01T08:04:29.954Z,30.27
2022-08-01T08:06:56.880Z,29.98
2022-08-01T08:09:24.127Z,30.03
2022-08-01T08:11:51.297Z,29.96
2022-08-01T08:14:18.505Z,30.37
2022-08-01T08:16:46.059Z,30.88
2022-08-01T08:19:13.286Z,31.13
2022-08-01T08:21:40.570Z,30.83
2022-08-01T08:24:26.410Z,30.59
2022-08-01T08:27:01.999Z,30.72
2022-08-01T08:29:31.007Z,30.53
2022-08-01T08:31:59.021Z,30.83
2022-08-01T08:34:27.164Z,31.11
2022-08-01T08:36:54.590Z,31.08
2022-08-01T08:39:21.542Z,31.23
2022-08-01T08:41:50.065Z,31.20
2022-08-01T08:44:18.068Z,31.49
2022-08-01T08:46:47.470Z,30.72
2022-08-01T08:49:18.482Z,30.98
2022-08-01T08:51:49.745Z,30.94
2022-08-01T08:54:18.912Z,31.00
2022-08-01T08:56:47.557Z,31.31
2022-08-01T08:59:14.988Z,31.56
2022-08-01T09:01:43.160Z,31.54
2022-08-01T09:04:11.055Z,31.66
2022-08-01T09:06:38.929Z,31.96
2022-08-01T09:09:07.303Z,31.62
2022-08-01T09:11:35.072Z,32.00
2022-08-01T09:14:07.556Z,31.44
2022-08-01T09:16:35.760Z,31.17
2022-08-01T09:19:39.731Z,31.50
2022-08-01T09:22:06.148Z,31.65
2022-08-01T09:24:33.961Z,32.07
2022-08-01T09:27:03.262Z,32.25
2022-08-01T09:29:38.026Z,32.64
2022-08-01T09:32:14.013Z,32.77
2022-08-01T09:34:43.289Z,32.68
2022-08-01T09:37:10.795Z,32.93
2022-08-01T09:39:40.746Z,32.55
2022-08-01T09:42:29.121Z,33.06
2022-08-01T09:44:56.433Z,32.90
2022-08-01T09:47:24.040Z,33.16
2022-08-01T09:49:59.205Z,33.89
2022-08-01T09:52:29.287Z,33.84
2022-08-01T09:55:01.545Z,33.70
2022-08-01T09:57:29.407Z,33.61
2022-08-01T10:00:00.803Z,33.64
2022-08-01T10:02:35.532Z,33.31
2022-08-01T10:05:08.250Z,33.17
2022-08-01T10:07:58.028Z,33.66
2022-08-01T10:10:28.927Z,33.33
2022-08-01T10:13:00.556Z,33.48
2022-08-01T10:15:36.903Z,32.80
2022-08-01T10:18:07.695Z,31.20
2022-08-01T10:20:44.126Z,30.97
2022-08-01T10:23:12.277Z,31.61
2022-08-01T10:25:47.054Z,32.17
2022-08-01T10:28:21.355Z,33.01
2022-08-01T10:30:49.591Z,32.14
2022-08-01T10:33:51.750Z,32.16
2022-08-01T10:36:08.578Z,32.30
2022-08-01T10:38:37.158Z,32.99
2022-08-01T10:41:08.557Z,33.22
2022-08-01T10:43:36.529Z,33.53
2022-08-01T10:46:04.965Z,33.75
2022-08-01T10:48:52.186Z,33.19
2022-08-01T10:51:21.529Z,33.30
2022-08-01T10:53:54.259Z,32.29
2022-08-01T10:56:26.943Z,32.38
2022-08-01T10:59:06.577Z,32.47
2022-08-01T11:01:44.693Z,33.22
2022-08-01T11:04:16.962Z,33.39
2022-08-01T11:07:10.071Z,33.59
2022-08-01T11:09:51.495Z,33.64
2022-08-01T11:12:23.465Z,33.28
2022-08-01T11:15:02.769Z,33.84
2022-08-01T11:17:37.153Z,33.77
2022-08-01T11:20:09.694Z,33.94
2022-08-01T11:23:07.803Z,33.70
2022-08-01T11:26:03.432Z,33.36
2022-08-01T11:28:33.916Z,32.35
2022-08-01T11:31:11.317Z,31.84
2022-08-01T11:33:46.062Z,32.12
2022-08-01T11:36:17.041Z,32.63
2022-08-01T11:38:46.268Z,33.06
2022-08-01T11:41:18.294Z,33.12
2022-08-01T11:43:58.238Z,32.69
2022-08-01T11:46:52.308Z,32.96
2022-08-01T11:49:49.328Z,32.56
2022-08-01T11:52:25.126Z,32.17
2022-08-01T11:55:13.232Z,33.02
2022-08-01T11:57:43.500Z,32.60
2022-08-01T12:00:16.983Z,32.83
2022-08-01T12:02:46.285Z,33.22
2022-08-01T12:05:15.785Z,33.65
2022-08-01T12:07:45.110Z,33.97
2022-08-01T12:10:21.033Z,33.91
2022-08-01T12:12:54.814Z,33.95
2022-08-01T12:15:23.963Z,33.92
2022-08-01T12:18:11.326Z,33.03
2022-08-01T12:20:55.745Z,33.05
2022-08-01T12:23:23.608Z,33.78
2022-08-01T12:25:54.570Z,33.93
2022-08-01T12:28:21.431Z,33.80
2022-08-01T12:30:50.426Z,33.97
2022-08-01T12:33:21.643Z,34.70
2022-08-01T12:35:49.051Z,34.59
2022-08-01T12:38:23.536Z,34.65
2022-08-01T12:40:51.698Z,35.14
2022-08-01T12:43:28.661Z,35.17
2022-08-01T12:45:59.612Z,34.96
2022-08-01T12:48:27.870Z,35.19
2022-08-01T12:50:58.718Z,35.97
2022-08-01T12:53:26.968Z,35.67
2022-08-01T12:56:06.900Z,34.79
2022-08-01T12:58:34.789Z,34.03
2022-08-01T13:01:07.443Z,33.77
2022-08-01T13:03:34.488Z,34.34
2022-08-01T13:06:01.484Z,33.20
2022-08-01T13:08:33.536Z,33.53
2022-08-01T13:11:15.763Z,34.78
2022-08-01T13:13:53.723Z,34.21
2022-08-01T13:16:30.788Z,34.22
2022-08-01T13:19:01.784Z,34.59
2022-08-01T13:21:34.563Z,35.85
2022-08-01T13:24:28.289Z,36.33
2022-08-01T13:26:59.685Z,36.45
2022-08-01T13:29:33.528Z,36.48
2022-08-01T13:32:01.747Z,36.45
2022-08-01T13:34:35.646Z,35.04
2022-08-01T13:37:03.535Z,36.21
2022-08-01T13:39:43.374Z,35.68
2022-08-01T13:42:18.943Z,34.50
2022-08-01T13:44:46.490Z,33.73
2022-08-01T13:47:15.842Z,32.84
2022-08-01T13:49:43.140Z,32.06
2022-08-01T13:52:10.237Z,31.39
2022-08-01T13:54:37.461Z,32.70
2022-08-01T13:57:04.612Z,33.89
2022-08-01T13:59:31.511Z,35.51
2022-08-01T14:01:58.591Z,35.08
2022-08-01T14:04:25.599Z,35.94
2022-08-01T14:06:52.480Z,34.90
2022-08-01T14:09:24.214Z,34.59
2022-08-01T14:11:51.451Z,35.54
2022-08-01T14:14:18.499Z,35.03
2022-08-01T14:16:48.075Z,35.11
2022-08-01T14:19:17.629Z,35.49
2022-08-01T14:21:46.178Z,34.13
2022-08-01T14:24:13.131Z,33.27
2022-08-01T14:26:39.939Z,32.70
2022-08-01T14:29:06.672Z,32.07
2022-08-01T14:31:34.421Z,31.43
2022-08-01T14:34:01.653Z,31.04
2022-08-01T14:36:31.131Z,30.94
2022-08-01T14:39:00.289Z,30.63
2022-08-01T14:41:28.459Z,30.63
2022-08-01T14:43:57.548Z,30.57
2022-08-01T14:46:24.377Z,30.64
2022-08-01T14:48:51.166Z,30.68
2022-08-01T14:51:18.022Z,30.62
2022-08-01T14:53:46.946Z,30.72
2022-08-01T14:56:25.897Z,30.91
2022-08-01T14:58:52.675Z,30.69
2022-08-01T15:01:19.855Z,30.74
2022-08-01T15:03:47.482Z,30.53
2022-08-01T15:06:14.386Z,30.64
2022-08-01T15:08:41.318Z,30.68
2022-08-01T15:11:09.859Z,30.57
2022-08-01T15:13:40.568Z,30.82
2022-08-01T15:16:09.074Z,30.48
2022-08-01T15:18:38.746Z,30.15
2022-08-01T15:21:05.495Z,30.24
2022-08-01T15:23:32.356Z,30.01
2022-08-01T15:25:59.202Z,29.93
2022-08-01T15:28:26.048Z,29.89
2022-08-01T15:30:52.933Z,30.12
2022-08-01T15:33:20.526Z,29.81
2022-08-01T15:35:47.345Z,29.74
2022-08-01T15:38:14.039Z,29.64
2022-08-01T15:40:40.941Z,29.64
2022-08-01T15:43:08.283Z,29.57
2022-08-01T15:45:49.292Z,29.60
2022-08-01T15:48:17.549Z,29.54
2022-08-01T15:50:44.764Z,29.57
2022-08-01T15:53:11.586Z,29.71
2022-08-01T15:55:39.809Z,29.66
2022-08-01T15:58:07.522Z,29.62
2022-08-01T16:00:39.634Z,29.60
2022-08-01T16:03:08.502Z,29.67
2022-08-01T16:05:42.930Z,29.54
2022-08-01T16:08:14.364Z,29.71
2022-08-01T16:10:41.465Z,29.55
2022-08-01T16:13:08.593Z,29.51
2022-08-01T16:15:37.448Z,29.33
2022-08-01T16:18:10.128Z,29.43
2022-08-01T16:20:41.474Z,29.38
2022-08-01T16:23:12.100Z,29.24
2022-08-01T16:25:39.250Z,29.33
2022-08-01T16:28:05.989Z,29.20
2022-08-01T16:30:33.244Z,29.01
2022-08-01T16:33:08.468Z,28.92
2022-08-01T16:35:44.562Z,28.92
2022-08-01T16:38:13.986Z,28.83
2022-08-01T16:40:47.595Z,28.93
2022-08-01T16:43:16.617Z,29.00
2022-08-01T16:45:44.174Z,28.86
2022-08-01T16:48:12.540Z,28.86
2022-08-01T16:50:39.903Z,28.82
2022-08-01T16:53:06.744Z,28.73
2022-08-01T16:55:49.707Z,29.12
2022-08-01T16:58:27.211Z,28.85
2022-08-01T17:00:56.795Z,28.67
2022-08-01T17:03:52.658Z,28.68
2022-08-01T17:06:12.269Z,28.73
2022-08-01T17:08:46.453Z,28.65
2022-08-01T17:11:14.622Z,28.51
2022-08-01T17:13:41.748Z,28.63
2022-08-01T17:16:09.125Z,28.61
2022-08-01T17:18:36.047Z,28.45
2022-08-01T17:21:03.053Z,28.30
2022-08-01T17:23:31.891Z,28.23
2022-08-01T17:25:59.390Z,28.10
2022-08-01T17:28:26.373Z,28.14
2022-08-01T17:30:53.268Z,28.00
2022-08-01T17:33:20.420Z,27.86
2022-08-01T17:35:47.474Z,27.82
2022-08-01T17:38:14.259Z,27.75
2022-08-01T17:40:41.354Z,27.63
2022-08-01T17:43:08.702Z,27.60
2022-08-01T17:45:39.312Z,27.50
2022-08-01T17:48:18.992Z,27.35
2022-08-01T17:50:47.836Z,27.42
2022-08-01T17:53:21.132Z,27.35
2022-08-01T17:55:53.839Z,27.30
2022-08-01T17:58:36.792Z,27.31
2022-08-01T18:01:12.138Z,27.33
2022-08-01T18:03:41.229Z,27.40
2022-08-01T18:06:08.861Z,27.39
2022-08-01T18:08:35.879Z,27.33
2022-08-01T18:11:02.789Z,27.29
2022-08-01T18:13:30.146Z,27.36
2022-08-01T18:15:57.472Z,27.39
2022-08-01T18:18:33.128Z,27.40
2022-08-01T18:21:02.026Z,27.30
2022-08-01T18:23:28.893Z,27.27
2022-08-01T18:25:55.751Z,27.31
2022-08-01T18:28:33.656Z,27.27
2022-08-01T18:31:03.726Z,27.11
2022-08-01T18:33:30.610Z,26.81
2022-08-01T18:36:03.550Z,26.70
2022-08-01T18:38:33.115Z,26.63
2022-08-01T18:41:01.366Z,26.60
2022-08-01T18:43:28.884Z,26.58
2022-08-01T18:45:58.424Z,26.51
2022-08-01T18:48:25.319Z,26.58
2022-08-01T18:50:54.029Z,26.48
2022-08-01T18:53:24.144Z,26.57
2022-08-01T18:55:51.169Z,26.45
2022-08-01T18:58:18.553Z,26.33
2022-08-01T19:00:45.340Z,26.31
2022-08-01T19:03:13.719Z,26.30
2022-08-01T19:05:40.628Z,26.34
2022-08-01T19:08:08.199Z,26.29
2022-08-01T19:10:36.699Z,26.28
2022-08-01T19:13:03.934Z,26.32
2022-08-01T19:15:30.859Z,26.32
2022-08-01T19:17:57.694Z,25.90
2022-08-01T19:20:24.611Z,25.99
2022-08-01T19:22:53.475Z,25.86
2022-08-01T19:25:20.198Z,25.59
2022-08-01T19:27:49.954Z,25.56
2022-08-01T19:30:18.857Z,25.47
2022-08-01T19:32:47.489Z,25.50
2022-08-01T19:35:17.161Z,25.53
2022-08-01T19:37:47.371Z,25.22
2022-08-01T19:40:26.834Z,25.04
2022-08-01T19:42:56.592Z,24.97
2022-08-01T19:45:24.688Z,25.18
2022-08-01T19:47:57.355Z,24.99
2022-08-01T19:50:26.686Z,24.88
2022-08-01T19:52:55.507Z,24.77
2022-08-01T19:55:23.953Z,24.62
2022-08-01T19:58:26.470Z,24.52
2022-08-01T20:00:41.061Z,24.49
2022-08-01T20:03:09.871Z,24.43
2022-08-01T20:05:37.463Z,24.50
2022-08-01T20:08:06.652Z,24.49
2022-08-01T20:10:34.509Z,24.43
2022-08-01T20:13:02.214Z,24.33
2022-08-01T20:15:29.402Z,24.29
2022-08-01T20:17:59.280Z,24.24
2022-08-01T20:20:26.947Z,24.18
2022-08-01T20:22:56.692Z,24.04
2022-08-01T20:28:27.888Z,23.94
2022-08-01T20:31:05.624Z,23.98
2022-08-01T20:33:35.534Z,23.81
2022-08-01T20:36:04.210Z,23.96
2022-08-01T20:38:41.106Z,23.98
2022-08-01T20:41:09.414Z,23.94
2022-08-01T20:43:37.239Z,23.99
2022-08-01T20:46:05.554Z,24.00
2022-08-01T20:48:32.976Z,23.99
2022-08-01T20:51:16.632Z,24.10
2022-08-01T20:53:46.967Z,24.11
2022-08-01T20:56:28.914Z,24.10
2022-08-01T20:59:52.056Z,24.19
2022-08-01T21:02:36.996Z,24.52
2022-08-01T21:05:05.898Z,24.26
2022-08-01T21:07:47.592Z,24.25
2022-08-01T21:10:16.794Z,23.71
2022-08-01T21:13:03.305Z,24.05
2022-08-01T21:15:39.784Z,23.94
2022-08-01T21:18:38.783Z,24.05
2022-08-01T21:21:22.303Z,23.98
2022-08-01T21:24:15.710Z,23.87
2022-08-01T21:26:44.448Z,23.40
2022-08-01T21:29:11.994Z,23.38
2022-08-01T21:31:41.344Z,23.11
2022-08-01T21:34:09.663Z,22.92
2022-08-01T21:36:37.130Z,23.30
2022-08-01T21:39:06.137Z,23.26
2022-08-01T21:41:56.551Z,23.24
2022-08-01T21:44:20.643Z,23.03
2022-08-01T21:46:48.833Z,22.96
2022-08-01T21:49:15.572Z,22.94
2022-08-01T21:51:56.485Z,22.77
2022-08-01T21:54:35.163Z,22.89
2022-08-01T21:57:07.263Z,22.94
2022-08-01T22:00:20.945Z,22.93
2022-08-01T22:03:23.659Z,22.44
2022-08-01T22:05:52.333Z,22.78
2022-08-01T22:08:40.422Z,22.88
2022-08-01T22:11:08.640Z,22.81
2022-08-01T22:13:36.408Z,22.90
2022-08-01T22:16:07.957Z,22.81
2022-08-01T22:18:36.186Z,22.73
2022-08-01T22:21:03.657Z,22.58
2022-08-01T22:23:36.404Z,22.89
2022-08-01T22:26:06.819Z,22.88
2022-08-01T22:28:38.178Z,22.83
2022-08-01T22:31:08.972Z,22.81
2022-08-01T22:33:37.820Z,22.87
2022-08-01T22:36:06.310Z,22.58
2022-08-01T22:38:33.926Z,22.75
2022-08-01T22:41:06.264Z,22.68
2022-08-01T22:43:46.835Z,22.71
2022-08-01T22:46:37.882Z,22.81
2022-08-01T22:49:25.801Z,22.95
2022-08-01T22:52:27.527Z,22.96
2022-08-01T22:55:06.061Z,22.99
2022-08-01T22:57:47.335Z,23.16
2022-08-01T23:00:17.520Z,23.17
2022-08-01T23:02:48.287Z,23.21
2022-08-01T23:05:23.089Z,23.22
2022-08-01T23:07:55.002Z,23.50
2022-08-01T23:10:24.237Z,23.32
2022-08-01T23:12:52.801Z,23.21
2022-08-01T23:15:20.322Z,23.06
2022-08-01T23:17:48.885Z,22.99
2022-08-01T23:20:16.759Z,22.62
2022-08-01T23:22:44.110Z,21.74
2022-08-01T23:25:15.251Z,21.74
2022-08-01T23:27:55.766Z,21.96
2022-08-01T23:30:34.298Z,21.78
2022-08-01T23:33:01.353Z,21.77
2022-08-01T23:35:29.299Z,22.05
2022-08-01T23:38:01.902Z,22.07
2022-08-01T23:40:33.466Z,22.10
2022-08-01T23:43:02.049Z,22.21
2022-08-01T23:46:02.307Z,22.06
2022-08-01T23:48:16.365Z,21.94
2022-08-01T23:50:43.222Z,22.12
2022-08-01T23:53:09.959Z,21.86
2022-08-01T23:55:38.058Z,21.78
2022-08-01T23:58:06.849Z,21.82
